Terminal Aerodrome Forecast
Issued by NWS

Home | Current Version | Previous Version | Text Only | Print | Product List | Glossary On
Versions: 1 2 3 4 5 6 7 8 9 10 11 12 13 14 15 16 17 18 19 20 21 22 23 24
220
FTUS41 KPBZ 051739
TAFLBE
TAF
KLBE 051739Z 0518/0618 04006KT P6SM VCSH BKN045 BKN080
      TEMPO 0520/0522 -SHRA BKN025
     FM060500 35005KT P6SM VCSH BKN010=

USA.gov is the U.S. government's official web portal to all federal, state and local government web resources and services.